Time;durP1;ratioP1;P1;durP2;ratioP2;P2;SDS_P1;SDS_P2;PMS_P1;PMS_P2;Temp;Humidity;BMP_temperature;BMP_pressure;BME280_temperature;BME280_humidity;BME280_pressure;Samples;Min_cycle;Max_cycle;Signal;HPM_P1;HPM_P2
2021/11/08 00:00:29;;;;;;;16.05;6.45;;;6.80;99.90;;;;;;4973588;28;20026;-72
2021/11/08 00:02:59;;;;;;;12.98;6.28;;;6.80;99.90;;;;;;4972656;28;20388;-72
2021/11/08 00:05:25;;;;;;;14.15;6.63;;;6.90;99.90;;;;;;4991094;28;20455;-72
2021/11/08 00:07:55;;;;;;;15.30;6.38;;;6.80;99.90;;;;;;4991392;28;20531;-72
2021/11/08 00:10:28;;;;;;;13.77;6.55;;;6.80;99.90;;;;;;4991360;28;20018;-73
2021/11/08 00:12:53;;;;;;;11.98;6.18;;;6.80;99.90;;;;;;4973089;28;20508;-72
2021/11/08 00:15:23;;;;;;;14.10;6.82;;;6.80;99.90;;;;;;4977315;28;20482;-72
2021/11/08 00:18:14;;;;;;;12.55;6.55;;;6.80;99.90;;;;;;5010889;28;20151;-73
2021/11/08 00:20:47;;;;;;;14.93;6.82;;;6.80;99.90;;;;;;5009530;28;20428;-72
2021/11/08 00:23:14;;;;;;;12.80;6.30;;;6.80;99.90;;;;;;4992307;28;20109;-72
2021/11/08 00:25:42;;;;;;;16.67;6.05;;;6.70;99.90;;;;;;4990834;28;20022;-72
2021/11/08 00:28:12;;;;;;;14.18;5.80;;;6.70;99.90;;;;;;4991256;28;20023;-72
2021/11/08 00:30:38;;;;;;;11.43;5.60;;;6.70;99.90;;;;;;4990973;28;20093;-72
2021/11/08 00:33:09;;;;;;;17.05;6.22;;;6.60;99.90;;;;;;4972709;28;20026;-72
2021/11/08 00:35:36;;;;;;;10.50;5.50;;;6.60;99.90;;;;;;4973225;28;20056;-72
2021/11/08 00:38:03;;;;;;;11.25;5.72;;;6.60;99.90;;;;;;4992437;28;20026;-72
2021/11/08 00:40:28;;;;;;;15.13;6.07;;;6.60;99.90;;;;;;4994893;28;20030;-72
2021/11/08 00:42:54;;;;;;;13.98;5.88;;;6.50;99.90;;;;;;5009187;28;20108;-72
2021/11/08 00:45:21;;;;;;;15.75;6.32;;;6.50;99.90;;;;;;5000721;28;20036;-72
2021/11/08 00:47:47;;;;;;;17.40;6.03;;;6.50;99.90;;;;;;4996142;28;20029;-72
2021/11/08 00:50:13;;;;;;;14.82;6.25;;;6.50;99.90;;;;;;4997585;28;20021;-74
2021/11/08 00:52:39;;;;;;;14.82;6.10;;;6.50;99.90;;;;;;4984573;28;20145;-72
2021/11/08 00:55:06;;;;;;;9.45;5.95;;;6.50;99.90;;;;;;4992515;28;20032;-72
2021/11/08 00:57:33;;;;;;;15.93;6.03;;;6.40;99.90;;;;;;4992578;28;20041;-73
2021/11/08 01:00:00;;;;;;;14.40;6.32;;;6.50;99.90;;;;;;5010220;28;20052;-74
2021/11/08 01:02:29;;;;;;;13.55;6.60;;;6.40;99.90;;;;;;5009602;28;20037;-74
2021/11/08 01:04:59;;;;;;;14.32;6.50;;;6.40;99.90;;;;;;4984873;28;20486;-74
2021/11/08 01:07:24;;;;;;;12.43;6.70;;;6.40;99.90;;;;;;5006978;28;20034;-74
2021/11/08 01:09:50;;;;;;;20.33;6.47;;;6.40;99.90;;;;;;4992481;28;20033;-74
2021/11/08 01:12:17;;;;;;;12.52;6.35;;;6.40;99.90;;;;;;4992654;28;20091;-74
2021/11/08 01:14:44;;;;;;;18.67;6.75;;;6.30;99.90;;;;;;4993937;28;20026;-71
2021/11/08 01:17:10;;;;;;;18.38;6.72;;;6.30;99.90;;;;;;5014445;28;20018;-72
2021/11/08 01:19:36;;;;;;;12.43;6.10;;;6.30;99.90;;;;;;4996380;28;20037;-74
2021/11/08 01:22:23;;;;;;;12.57;6.57;;;6.30;99.90;;;;;;5014092;28;20022;-73
2021/11/08 01:24:53;;;;;;;12.27;6.40;;;6.20;99.90;;;;;;4995323;28;20034;-72
2021/11/08 01:27:27;;;;;;;13.85;6.88;;;6.10;99.90;;;;;;4996282;28;20055;-73
2021/11/08 01:29:53;;;;;;;12.35;6.40;;;6.10;99.90;;;;;;5013265;28;20109;-73
2021/11/08 01:32:18;;;;;;;10.90;6.20;;;6.10;99.90;;;;;;4996196;28;20216;-73
2021/11/08 01:34:44;;;;;;;13.20;6.10;;;6.10;99.90;;;;;;4998555;28;20026;-73
2021/11/08 01:37:11;;;;;;;15.80;5.93;;;6.00;99.90;;;;;;5000432;28;20084;-73
2021/11/08 01:39:37;;;;;;;15.23;6.45;;;6.00;99.90;;;;;;4993078;28;20494;-73
2021/11/08 01:42:08;;;;;;;19.23;7.03;;;5.90;99.90;;;;;;4996026;28;20033;-73
2021/11/08 01:44:34;;;;;;;15.05;6.85;;;5.90;99.90;;;;;;4993593;28;20480;-73
2021/11/08 01:47:01;;;;;;;15.45;6.32;;;5.80;99.90;;;;;;5013387;28;20033;-73
2021/11/08 01:49:29;;;;;;;18.60;7.20;;;5.80;99.90;;;;;;4995571;28;20113;-73
2021/11/08 01:51:55;;;;;;;18.08;7.07;;;5.80;99.90;;;;;;5026271;28;20033;-73
2021/11/08 01:54:22;;;;;;;19.77;7.40;;;5.80;99.90;;;;;;5032125;28;20501;-73
2021/11/08 01:56:48;;;;;;;16.17;7.05;;;5.80;99.90;;;;;;5033410;28;20099;-73
2021/11/08 01:59:14;;;;;;;14.45;6.80;;;5.80;99.90;;;;;;5018506;28;20061;-73
2021/11/08 02:01:40;;;;;;;16.35;7.03;;;5.70;99.90;;;;;;5007420;28;20359;-73
2021/11/08 02:04:06;;;;;;;15.95;7.13;;;5.70;99.90;;;;;;4994575;28;20175;-72
2021/11/08 02:06:32;;;;;;;15.02;6.90;;;5.70;99.90;;;;;;5013218;28;20116;-73
2021/11/08 02:08:58;;;;;;;15.93;6.38;;;5.70;99.90;;;;;;4995831;28;20116;-72
2021/11/08 02:11:24;;;;;;;14.52;6.07;;;5.60;99.90;;;;;;5013142;28;20133;-72
2021/11/08 02:13:53;;;;;;;15.55;6.63;;;5.70;99.90;;;;;;4994597;28;20449;-72
2021/11/08 02:16:19;;;;;;;15.10;6.85;;;5.60;99.90;;;;;;5011787;28;20033;-72
2021/11/08 02:18:46;;;;;;;26.42;7.60;;;5.60;99.90;;;;;;5012983;28;20521;-73
2021/11/08 02:21:13;;;;;;;13.15;6.53;;;5.60;99.90;;;;;;5012950;28;20505;-73
2021/11/08 02:23:41;;;;;;;14.90;6.68;;;5.60;99.90;;;;;;4993366;28;20033;-72
2021/11/08 02:26:14;;;;;;;16.38;6.82;;;5.60;99.90;;;;;;5012880;28;20036;-72
2021/11/08 02:28:40;;;;;;;11.27;6.22;;;5.60;99.90;;;;;;5012934;28;20021;-73
2021/11/08 02:31:06;;;;;;;16.55;7.25;;;5.50;99.90;;;;;;5010470;28;20045;-73
2021/11/08 02:33:32;;;;;;;13.30;6.93;;;5.50;99.90;;;;;;4992244;28;20050;-72
2021/11/08 02:35:59;;;;;;;12.60;6.28;;;5.50;99.90;;;;;;4992941;28;20088;-72
2021/11/08 02:38:27;;;;;;;14.38;6.60;;;5.40;99.90;;;;;;5009549;28;20426;-73
2021/11/08 02:40:55;;;;;;;14.27;6.50;;;5.40;99.90;;;;;;5012730;28;20014;-73
2021/11/08 02:43:23;;;;;;;13.75;6.57;;;5.40;99.90;;;;;;4992639;28;20030;-73
2021/11/08 02:46:17;;;;;;;15.43;6.53;;;5.30;99.90;;;;;;4994736;28;20525;-72
2021/11/08 02:48:43;;;;;;;12.77;7.00;;;5.30;99.90;;;;;;5009101;28;20061;-73
2021/11/08 02:53:40;;;;;;;15.27;6.15;;;5.30;99.90;;;;;;5011647;28;20033;-72
2021/11/08 02:56:10;;;;;;;11.90;6.35;;;5.30;99.90;;;;;;5012561;28;20351;-73
2021/11/08 02:58:38;;;;;;;14.60;6.10;;;5.30;99.90;;;;;;4994734;28;20034;-72
2021/11/08 03:01:06;;;;;;;17.00;6.80;;;5.20;99.90;;;;;;4994795;28;20212;-72
2021/11/08 03:03:45;;;;;;;18.77;6.85;;;5.30;99.90;;;;;;4993646;28;20030;-72
2021/11/08 03:06:33;;;;;;;11.15;5.93;;;5.30;99.90;;;;;;5012115;28;20018;-72
2021/11/08 03:09:06;;;;;;;15.88;6.90;;;5.30;99.90;;;;;;5011706;28;20116;-73
2021/11/08 03:11:31;;;;;;;16.92;6.70;;;5.20;99.90;;;;;;5008083;28;20026;-73
2021/11/08 03:14:07;;;;;;;16.63;7.10;;;5.20;99.90;;;;;;4993865;28;20032;-73
2021/11/08 03:19:03;;;;;;;14.45;7.63;;;5.30;99.90;;;;;;5012120;28;20026;-73
2021/11/08 03:21:30;;;;;;;15.07;7.40;;;5.30;99.90;;;;;;4991819;28;20037;-72
2021/11/08 03:24:00;;;;;;;16.42;7.32;;;5.40;99.90;;;;;;5010971;28;20108;-72
2021/11/08 03:26:42;;;;;;;16.73;8.20;;;5.40;99.90;;;;;;5011744;28;20080;-72
2021/11/08 03:29:10;;;;;;;19.45;7.60;;;5.40;99.90;;;;;;5012071;28;20029;-72
2021/11/08 03:31:36;;;;;;;20.55;8.48;;;5.40;99.90;;;;;;4993921;28;20124;-72
2021/11/08 03:34:02;;;;;;;15.35;7.60;;;5.50;99.90;;;;;;5010882;28;20046;-72
2021/11/08 03:36:28;;;;;;;19.48;7.80;;;5.50;99.90;;;;;;4994787;28;20494;-72
2021/11/08 03:38:55;;;;;;;16.33;8.13;;;5.50;99.90;;;;;;5008244;28;20460;-73
2021/11/08 03:41:20;;;;;;;20.92;8.43;;;5.50;99.90;;;;;;4990538;28;20112;-72
2021/11/08 03:43:46;;;;;;;23.77;8.65;;;5.50;99.90;;;;;;5010548;28;20501;-72
2021/11/08 03:46:12;;;;;;;21.42;9.45;;;5.50;99.90;;;;;;5011188;28;20081;-74
2021/11/08 03:48:37;;;;;;;21.05;9.35;;;5.50;99.90;;;;;;5011314;28;20369;-72
2021/11/08 03:51:04;;;;;;;23.55;9.73;;;5.50;99.90;;;;;;5015307;28;20054;-72
2021/11/08 03:53:29;;;;;;;20.08;9.05;;;5.50;99.90;;;;;;5010781;28;20454;-73
2021/11/08 03:55:55;;;;;;;23.50;10.18;;;5.60;99.90;;;;;;5010935;28;20072;-73
2021/11/08 03:58:21;;;;;;;23.10;9.48;;;5.50;99.90;;;;;;5011484;28;20446;-72
2021/11/08 04:00:47;;;;;;;21.35;9.00;;;5.50;99.90;;;;;;4993382;28;20147;-72
2021/11/08 04:03:13;;;;;;;14.77;8.43;;;5.50;99.90;;;;;;5010195;28;20022;-72
2021/11/08 04:05:40;;;;;;;22.95;9.73;;;5.50;99.90;;;;;;5000984;28;20037;-72
2021/11/08 04:08:11;;;;;;;17.65;9.07;;;5.50;99.90;;;;;;5011296;28;20026;-72
2021/11/08 04:10:38;;;;;;;21.63;9.68;;;5.50;99.90;;;;;;5011273;28;20017;-73
2021/11/08 04:13:04;;;;;;;23.98;9.73;;;5.50;99.90;;;;;;4992802;28;20026;-72
2021/11/08 04:15:36;;;;;;;24.52;9.40;;;5.50;99.90;;;;;;4993330;28;20025;-73
2021/11/08 04:18:05;;;;;;;27.95;10.40;;;5.50;99.90;;;;;;4993440;28;20022;-72
2021/11/08 04:20:31;;;;;;;20.50;8.38;;;5.60;99.90;;;;;;5010743;28;20405;-72
2021/11/08 04:22:56;;;;;;;23.23;9.73;;;5.50;99.90;;;;;;5009834;28;20021;-72
2021/11/08 04:25:24;;;;;;;27.85;10.30;;;5.50;99.90;;;;;;5010500;28;20026;-72
2021/11/08 04:27:51;;;;;;;28.55;10.02;;;5.50;99.90;;;;;;5010847;28;20021;-73
2021/11/08 04:30:17;;;;;;;23.15;10.02;;;5.60;99.90;;;;;;5011058;28;20026;-73
2021/11/08 04:35:22;;;;;;;23.63;10.50;;;5.50;99.90;;;;;;5010633;28;20509;-73
2021/11/08 05:31:52;;;;;;;21.65;8.85;;;5.40;99.90;;;;;;4966301;28;20537;-74
2021/11/08 05:34:18;;;;;;;20.77;9.10;;;5.40;99.90;;;;;;4991367;28;20026;-72
2021/11/08 05:36:44;;;;;;;21.60;9.35;;;5.40;99.90;;;;;;4976990;28;20034;-72
2021/11/08 05:39:11;;;;;;;16.65;8.48;;;5.40;99.90;;;;;;4990463;28;20027;-72
2021/11/08 05:41:39;;;;;;;19.67;9.10;;;5.40;99.90;;;;;;4973130;28;20030;-74
2021/11/08 05:44:06;;;;;;;26.40;9.27;;;5.40;99.90;;;;;;4989358;28;20028;-73
2021/11/08 05:46:32;;;;;;;19.92;9.23;;;5.40;99.90;;;;;;4984398;28;20399;-72
2021/11/08 05:48:58;;;;;;;24.13;9.85;;;5.40;99.90;;;;;;4996820;28;20025;-72
2021/11/08 05:51:24;;;;;;;29.75;9.32;;;5.50;99.90;;;;;;5019051;28;20034;-72
2021/11/08 05:53:50;;;;;;;28.50;9.80;;;5.50;99.90;;;;;;5008867;28;20033;-72
2021/11/08 05:56:36;;;;;;;25.77;9.43;;;5.50;99.90;;;;;;5009887;28;20072;-72
2021/11/08 06:50:41;;;;;;;30.33;11.52;;;5.50;99.90;;;;;;5011649;28;20084;-73
2021/11/08 06:53:16;;;;;;;26.25;12.40;;;5.50;99.90;;;;;;5011362;28;20034;-72
2021/11/08 06:55:42;;;;;;;23.05;11.43;;;5.50;99.90;;;;;;5013013;28;20029;-72
2021/11/08 06:58:14;;;;;;;27.05;12.57;;;5.50;99.90;;;;;;4995509;28;20037;-72
2021/11/08 07:00:39;;;;;;;;;;;5.50;99.90;;;;;;5014003;28;20455;-71
2021/11/08 07:03:05;;;;;;;29.05;11.57;;;5.50;99.90;;;;;;4994349;28;19956;-72
2021/11/08 07:05:31;;;;;;;28.35;11.43;;;5.50;99.90;;;;;;5012792;28;20018;-72
2021/11/08 07:07:56;;;;;;;25.77;11.25;;;5.50;99.90;;;;;;5012863;28;20602;-72
2021/11/08 07:10:22;;;;;;;34.50;11.30;;;5.40;99.90;;;;;;4994861;28;20390;-72
2021/11/08 07:12:50;;;;;;;26.63;12.25;;;5.50;99.90;;;;;;4994335;28;20441;-72
2021/11/08 07:15:19;;;;;;;28.45;12.45;;;5.50;99.90;;;;;;5012928;28;20022;-73
2021/11/08 07:17:48;;;;;;;22.13;11.20;;;5.50;99.90;;;;;;5013279;28;20109;-74
2021/11/08 07:20:14;;;;;;;29.27;11.50;;;5.40;99.90;;;;;;4995153;28;20041;-74
2021/11/08 07:22:40;;;;;;;27.40;10.70;;;5.40;99.90;;;;;;4994253;28;20037;-74
2021/11/08 07:25:06;;;;;;;26.00;11.63;;;5.40;99.90;;;;;;5012382;28;20030;-73
2021/11/08 07:27:33;;;;;;;22.77;11.32;;;5.40;99.90;;;;;;5016781;28;20026;-74
2021/11/08 07:29:58;;;;;;;22.20;10.82;;;5.40;99.90;;;;;;5032521;28;20022;-74
2021/11/08 07:32:25;;;;;;;23.90;11.35;;;5.40;99.90;;;;;;5008732;28;20037;-74
2021/11/08 07:34:55;;;;;;;25.60;11.10;;;5.50;99.90;;;;;;5011753;28;20018;-74
2021/11/08 07:37:21;;;;;;;24.38;11.65;;;5.50;99.90;;;;;;4994866;28;20475;-74
2021/11/08 07:39:47;;;;;;;22.55;11.45;;;5.50;99.90;;;;;;5012571;28;20065;-74
2021/11/08 07:42:13;;;;;;;25.02;11.60;;;5.60;99.90;;;;;;5012358;28;20099;-74
2021/11/08 07:44:38;;;;;;;21.40;10.35;;;5.60;99.90;;;;;;5006849;28;20391;-74
2021/11/08 07:47:04;;;;;;;25.50;10.98;;;5.60;99.90;;;;;;5016047;28;20505;-74
2021/11/08 07:49:30;;;;;;;23.38;11.30;;;5.60;99.90;;;;;;4991343;28;20022;-74
2021/11/08 07:51:55;;;;;;;25.30;11.95;;;5.60;99.90;;;;;;4994870;28;20025;-75
2021/11/08 07:54:21;;;;;;;28.27;12.23;;;5.60;99.90;;;;;;5007829;28;20101;-73
2021/11/08 07:56:48;;;;;;;27.98;13.45;;;5.70;99.90;;;;;;5012254;28;20046;-74
2021/11/08 07:59:18;;;;;;;26.92;11.80;;;5.70;99.90;;;;;;4994307;28;20022;-74
2021/11/08 08:01:47;;;;;;;26.27;10.95;;;5.70;99.90;;;;;;4986017;28;20068;-74
2021/11/08 08:04:12;;;;;;;27.73;11.27;;;5.80;99.90;;;;;;4999327;28;20022;-75
2021/11/08 08:06:38;;;;;;;29.05;10.80;;;5.80;99.90;;;;;;5005012;28;20029;-73
2021/11/08 08:09:05;;;;;;;25.60;9.77;;;5.90;99.90;;;;;;4995262;28;20467;-74
2021/11/08 08:11:30;;;;;;;23.05;11.32;;;5.90;99.90;;;;;;5007449;28;20457;-74
2021/11/08 08:13:56;;;;;;;21.77;10.20;;;5.90;99.90;;;;;;4992176;28;20057;-74
2021/11/08 08:16:23;;;;;;;26.33;10.60;;;6.00;99.90;;;;;;5011758;28;20214;-73
2021/11/08 08:18:50;;;;;;;21.60;9.98;;;6.00;99.90;;;;;;5010338;28;20096;-73
2021/11/08 08:21:17;;;;;;;23.38;9.50;;;6.10;99.90;;;;;;4987025;28;20062;-73
2021/11/08 08:23:43;;;;;;;25.25;9.40;;;6.10;99.90;;;;;;4988722;28;20026;-74
2021/11/08 08:26:10;;;;;;;24.60;9.55;;;6.10;99.90;;;;;;4981029;28;20034;-73
2021/11/08 08:28:36;;;;;;;26.35;9.23;;;6.20;99.90;;;;;;4999735;28;20026;-73
2021/11/08 08:31:02;;;;;;;24.70;8.38;;;6.30;99.90;;;;;;4993819;28;20099;-73
2021/11/08 08:33:28;;;;;;;16.95;8.25;;;6.40;99.90;;;;;;4992613;28;20026;-73
2021/11/08 08:35:54;;;;;;;17.05;8.80;;;6.40;99.90;;;;;;4993741;28;20034;-73
2021/11/08 08:38:22;;;;;;;22.67;9.10;;;6.40;99.90;;;;;;4979131;28;20034;-73
2021/11/08 08:40:50;;;;;;;22.40;9.27;;;6.40;99.90;;;;;;4992345;28;20030;-73
2021/11/08 08:43:17;;;;;;;18.50;9.20;;;6.50;99.90;;;;;;4990829;28;20034;-73
2021/11/08 08:45:43;;;;;;;16.70;9.10;;;6.50;99.90;;;;;;4991481;28;20051;-73
2021/11/08 08:48:11;;;;;;;21.27;9.70;;;6.60;99.90;;;;;;4976703;28;20453;-73
2021/11/08 08:50:38;;;;;;;22.52;10.43;;;6.60;99.90;;;;;;4993067;28;20022;-73
2021/11/08 08:53:03;;;;;;;29.08;17.15;;;6.70;99.90;;;;;;5009859;28;20057;-73
2021/11/08 08:55:30;;;;;;;33.20;19.48;;;6.70;99.90;;;;;;4996972;28;20026;-73
2021/11/08 08:57:58;;;;;;;20.05;10.57;;;6.80;99.90;;;;;;5031854;28;20029;-74
2021/11/08 09:00:24;;;;;;;26.63;14.15;;;6.80;99.90;;;;;;5012487;28;20032;-75
2021/11/08 09:02:52;;;;;;;22.13;9.38;;;6.80;99.90;;;;;;5009762;28;20045;-76
2021/11/08 09:05:19;;;;;;;21.40;9.38;;;6.80;99.90;;;;;;5011022;28;20048;-75
2021/11/08 09:07:44;;;;;;;22.52;9.27;;;6.80;99.90;;;;;;5013889;28;20060;-75
2021/11/08 09:10:10;;;;;;;22.92;9.38;;;6.90;99.90;;;;;;5011355;28;20057;-75
2021/11/08 09:12:36;;;;;;;23.48;9.75;;;6.80;99.90;;;;;;4992316;28;20029;-75
2021/11/08 09:15:04;;;;;;;22.88;10.50;;;6.90;99.90;;;;;;5011227;28;20026;-75
2021/11/08 09:17:30;;;;;;;21.20;9.27;;;6.90;99.90;;;;;;4993245;28;20466;-75
2021/11/08 09:19:56;;;;;;;19.95;8.82;;;6.90;99.90;;;;;;5011103;28;20083;-75
2021/11/08 09:22:22;;;;;;;23.85;9.60;;;7.00;99.90;;;;;;4993331;28;20482;-75
2021/11/08 09:24:47;;;;;;;18.23;8.02;;;7.10;99.90;;;;;;5010252;28;20101;-75
2021/11/08 09:27:13;;;;;;;16.00;7.88;;;7.20;99.90;;;;;;4993129;28;20501;-75
2021/11/08 09:29:39;;;;;;;20.15;8.68;;;7.20;99.90;;;;;;4993562;28;20025;-75
2021/11/08 09:32:05;;;;;;;19.38;7.55;;;7.20;99.90;;;;;;4993237;28;20063;-75
2021/11/08 09:34:36;;;;;;;22.88;8.48;;;7.20;99.90;;;;;;5013201;28;20101;-75
2021/11/08 09:37:03;;;;;;;20.70;8.07;;;7.30;99.90;;;;;;4997530;28;20029;-75
2021/11/08 09:39:31;;;;;;;19.73;8.45;;;7.30;99.90;;;;;;4997103;28;20065;-75
2021/11/08 09:42:03;;;;;;;20.23;7.57;;;7.40;99.90;;;;;;5014983;28;20033;-75
2021/11/08 09:44:29;;;;;;;18.30;8.32;;;7.30;99.90;;;;;;4995985;28;20076;-75
2021/11/08 09:46:57;;;;;;;21.25;8.50;;;7.40;99.90;;;;;;4997155;28;20136;-75
2021/11/08 09:49:24;;;;;;;20.65;7.43;;;7.50;99.90;;;;;;4996939;28;20037;-75
2021/11/08 09:51:51;;;;;;;23.10;8.35;;;7.50;99.90;;;;;;5014587;28;20113;-75
2021/11/08 09:54:19;;;;;;;20.08;8.10;;;7.50;99.90;;;;;;5018259;28;20109;-75
2021/11/08 09:56:47;;;;;;;22.38;8.48;;;7.60;99.90;;;;;;5009165;28;20033;-75
2021/11/08 09:59:14;;;;;;;23.33;8.98;;;7.60;99.90;;;;;;4996815;28;20060;-75
2021/11/08 10:01:42;;;;;;;23.83;9.35;;;7.60;99.90;;;;;;4996551;28;20018;-75
2021/11/08 10:04:10;;;;;;;23.00;8.60;;;7.70;99.90;;;;;;4995663;28;20722;-75
2021/11/08 10:06:37;;;;;;;20.17;9.32;;;7.70;99.90;;;;;;5004164;28;20030;-75
2021/11/08 10:09:10;;;;;;;23.92;9.27;;;7.70;99.90;;;;;;5013910;28;20029;-75
2021/11/08 10:11:37;;;;;;;24.13;8.80;;;7.70;99.90;;;;;;4996580;28;20068;-75
2021/11/08 10:14:04;;;;;;;18.13;8.50;;;7.70;99.90;;;;;;4995610;28;20091;-75
2021/11/08 10:16:34;;;;;;;18.80;7.68;;;7.80;99.90;;;;;;4996377;28;20045;-75
2021/11/08 10:19:03;;;;;;;16.65;7.63;;;7.80;99.90;;;;;;4996234;28;20033;-75
2021/11/08 10:21:32;;;;;;;21.63;7.35;;;7.90;99.90;;;;;;4996402;28;20037;-75
2021/11/08 10:24:03;;;;;;;20.42;6.95;;;7.90;99.90;;;;;;4995387;28;20061;-74
2021/11/08 10:26:34;;;;;;;16.38;6.10;;;8.00;99.90;;;;;;4995978;28;20050;-75
2021/11/08 10:29:01;;;;;;;20.58;9.95;;;8.10;99.90;;;;;;5013687;28;20483;-75
2021/11/08 10:31:31;;;;;;;16.80;7.85;;;8.20;99.90;;;;;;4996453;28;20036;-75
2021/11/08 10:33:59;;;;;;;16.58;7.40;;;8.30;99.90;;;;;;5012894;28;20025;-75
2021/11/08 10:36:25;;;;;;;14.38;7.57;;;8.40;99.90;;;;;;5013409;28;20026;-75
2021/11/08 10:38:56;;;;;;;16.48;7.20;;;8.40;99.90;;;;;;5013597;28;20037;-74
2021/11/08 10:41:25;;;;;;;16.88;7.13;;;8.40;99.90;;;;;;5013774;28;20034;-75
2021/11/08 10:43:57;;;;;;;21.98;7.43;;;8.50;99.90;;;;;;5012458;28;20026;-76
2021/11/08 10:46:25;;;;;;;13.65;6.07;;;8.50;99.90;;;;;;4994951;28;20056;-74
2021/11/08 10:49:03;;;;;;;15.35;6.60;;;8.50;99.90;;;;;;4996070;28;20385;-75
2021/11/08 10:51:30;;;;;;;19.58;8.05;;;8.40;99.90;;;;;;4995778;28;20030;-74
2021/11/08 10:53:59;;;;;;;18.95;7.90;;;8.50;99.90;;;;;;5002635;28;20475;-74
2021/11/08 10:56:28;;;;;;;19.00;7.55;;;8.50;99.90;;;;;;5004096;28;20033;-75
2021/11/08 10:58:56;;;;;;;17.30;6.70;;;8.50;99.90;;;;;;5019290;28;20104;-75
2021/11/08 11:01:39;;;;;;;15.52;7.97;;;8.50;99.90;;;;;;4996285;28;20394;-75
2021/11/08 11:04:06;;;;;;;16.88;7.20;;;8.50;99.90;;;;;;4995303;28;20061;-75
2021/11/08 11:06:56;;;;;;;18.23;7.80;;;8.50;99.90;;;;;;5013212;28;20599;-75
2021/11/08 11:09:35;;;;;;;18.20;7.55;;;8.50;99.90;;;;;;5013594;28;20252;-75
2021/11/08 11:12:14;;;;;;;17.35;6.88;;;8.50;99.90;;;;;;5013537;28;20045;-75
2021/11/08 11:15:22;;;;;;;141.32;78.75;;;8.50;99.90;;;;;;5012176;28;20060;-75
2021/11/08 11:17:58;;;;;;;21.00;9.93;;;8.50;99.90;;;;;;4999650;28;20034;-75
2021/11/08 11:20:45;;;;;;;19.05;7.07;;;8.60;99.90;;;;;;4994882;28;20034;-75
2021/11/08 11:23:25;;;;;;;17.38;7.57;;;8.60;99.90;;;;;;5011999;28;20386;-75
2021/11/08 11:26:03;;;;;;;17.20;8.63;;;8.60;99.90;;;;;;4994939;28;20026;-75
2021/11/08 11:28:37;;;;;;;17.25;7.65;;;8.60;99.90;;;;;;4993264;28;20024;-74
2021/11/08 11:31:16;;;;;;;27.15;6.63;;;8.60;99.90;;;;;;5010879;28;20049;-75
2021/11/08 11:33:42;;;;;;;16.92;6.60;;;8.70;99.90;;;;;;4990051;28;20028;-75
2021/11/08 11:36:16;;;;;;;18.98;6.32;;;8.70;99.90;;;;;;4973151;28;20030;-74
2021/11/08 11:38:56;;;;;;;12.38;6.18;;;8.70;99.90;;;;;;4981556;28;20030;-75
2021/11/08 11:41:30;;;;;;;15.98;6.95;;;8.70;99.90;;;;;;5010493;28;20032;-74
2021/11/08 11:43:57;;;;;;;17.05;7.00;;;8.80;99.90;;;;;;5009352;28;20141;-75
2021/11/08 11:46:27;;;;;;;25.15;7.18;;;8.80;99.90;;;;;;4992107;28;20379;-75
2021/11/08 11:48:53;;;;;;;18.23;6.82;;;8.90;99.90;;;;;;4992160;28;20021;-74
2021/11/08 11:51:28;;;;;;;19.42;6.93;;;8.90;99.90;;;;;;5002019;28;20482;-75
2021/11/08 11:53:56;;;;;;;14.52;7.00;;;8.90;99.90;;;;;;5017497;28;20040;-74
2021/11/08 11:56:24;;;;;;;20.90;7.90;;;8.90;99.90;;;;;;4997782;28;20061;-74
2021/11/08 11:58:50;;;;;;;18.90;8.07;;;8.90;99.90;;;;;;5029584;28;20021;-74
2021/11/08 12:01:20;;;;;;;19.95;8.32;;;8.90;99.90;;;;;;5030108;28;20041;-74
2021/11/08 12:03:46;;;;;;;20.63;8.32;;;8.90;99.90;;;;;;5011188;28;20120;-75
2021/11/08 12:06:15;;;;;;;21.05;8.05;;;8.90;99.90;;;;;;4987510;28;20081;-75
2021/11/08 12:08:42;;;;;;;18.48;7.82;;;8.90;99.90;;;;;;4972996;28;20105;-75
2021/11/08 12:11:09;;;;;;;20.00;8.00;;;9.00;99.90;;;;;;4995879;28;20034;-74
2021/11/08 12:13:40;;;;;;;18.15;7.47;;;9.00;99.90;;;;;;5009191;28;20500;-75
2021/11/08 12:16:15;;;;;;;17.92;7.75;;;9.00;99.90;;;;;;4992137;28;20387;-75
2021/11/08 12:18:42;;;;;;;14.50;6.80;;;9.10;99.90;;;;;;5009985;28;20475;-74
2021/11/08 12:21:24;;;;;;;17.08;7.85;;;9.10;99.90;;;;;;5009236;28;20111;-75
2021/11/08 12:23:50;;;;;;;;;;;9.10;99.90;;;;;;4991939;28;20453;-75
2021/11/08 12:26:19;;;;;;;17.95;6.50;;;9.30;99.90;;;;;;4976644;28;19953;-75
2021/11/08 12:28:47;;;;;;;15.32;7.05;;;9.40;99.90;;;;;;4990431;28;20014;-75
2021/11/08 12:31:20;;;;;;;16.55;6.47;;;9.60;99.90;;;;;;4984256;28;20022;-75
2021/11/08 12:34:01;;;;;;;12.98;6.03;;;9.70;99.90;;;;;;5007973;28;20026;-74
2021/11/08 12:36:27;;;;;;;12.98;5.75;;;9.80;99.90;;;;;;4991688;28;20057;-75
2021/11/08 12:38:58;;;;;;;14.95;5.97;;;9.90;99.90;;;;;;4990772;28;20443;-74
2021/11/08 12:41:39;;;;;;;16.33;5.80;;;10.20;99.90;;;;;;4991709;28;20021;-74
2021/11/08 12:44:08;;;;;;;13.95;4.80;;;10.40;99.90;;;;;;4992053;28;20450;-75
2021/11/08 12:46:56;;;;;;;10.48;4.80;;;10.50;99.90;;;;;;5011419;28;20026;-74
2021/11/08 12:49:42;;;;;;;9.48;4.53;;;10.60;99.90;;;;;;4993513;28;20021;-75
2021/11/08 12:52:31;;;;;;;11.27;4.50;;;10.50;99.90;;;;;;4993637;28;20022;-75
2021/11/08 12:55:12;;;;;;;12.35;4.95;;;10.40;99.90;;;;;;4994094;28;20025;-75
2021/11/08 12:57:50;;;;;;;19.55;9.60;;;10.30;99.90;;;;;;5001805;28;20036;-75
2021/11/08 13:00:23;;;;;;;23.45;12.65;;;10.30;99.90;;;;;;5010487;28;20104;-75
2021/11/08 13:03:03;;;;;;;13.90;5.55;;;10.20;99.90;;;;;;5010397;28;20049;-75
2021/11/08 13:05:36;;;;;;;15.98;5.50;;;10.20;99.90;;;;;;4993485;28;20403;-75
2021/11/08 13:08:02;;;;;;;15.27;5.28;;;10.20;99.90;;;;;;4993052;28;20057;-75
2021/11/08 13:10:32;;;;;;;15.30;4.50;;;10.10;99.90;;;;;;4993465;28;20084;-75
2021/11/08 13:12:58;;;;;;;13.85;4.80;;;10.00;99.90;;;;;;4994312;28;20084;-75
2021/11/08 13:15:28;;;;;;;12.13;4.22;;;10.00;99.80;;;;;;4991460;28;20027;-75
2021/11/08 13:18:12;;;;;;;15.93;4.65;;;9.90;99.80;;;;;;4974412;28;20057;-75
2021/11/08 13:20:44;;;;;;;16.23;5.82;;;9.80;99.60;;;;;;4993304;28;20453;-76
2021/11/08 13:23:20;;;;;;;17.70;6.80;;;9.80;99.70;;;;;;4992275;28;20375;-76
2021/11/08 13:25:56;;;;;;;13.07;4.82;;;9.70;99.70;;;;;;4987078;28;20027;-76
2021/11/08 13:28:28;;;;;;;12.48;4.80;;;9.70;99.40;;;;;;4993478;28;20049;-75
2021/11/08 13:31:00;;;;;;;18.33;5.22;;;9.60;99.40;;;;;;5011295;28;20556;-76
2021/11/08 13:33:33;;;;;;;14.63;4.38;;;9.60;99.60;;;;;;5010077;28;20036;-76
2021/11/08 13:36:00;;;;;;;8.88;3.63;;;9.60;99.70;;;;;;4993184;28;20486;-76
2021/11/08 13:38:31;;;;;;;10.85;4.28;;;9.60;99.70;;;;;;4992478;28;20041;-76
2021/11/08 13:41:05;;;;;;;14.87;4.20;;;9.60;99.60;;;;;;5003116;28;20065;-76
2021/11/08 13:43:43;;;;;;;16.65;4.15;;;9.60;99.60;;;;;;4989181;28;20033;-76
2021/11/08 13:46:13;;;;;;;12.45;3.95;;;9.60;99.50;;;;;;4991104;28;20498;-76
2021/11/08 13:48:43;;;;;;;9.45;3.60;;;9.60;99.50;;;;;;4994374;28;20463;-75
2021/11/08 13:51:49;;;;;;;10.43;3.35;;;9.60;99.50;;;;;;5010627;28;20026;-75
2021/11/08 13:54:27;;;;;;;15.60;3.88;;;9.50;99.20;;;;;;4999595;28;20429;-76
2021/11/08 13:56:56;;;;;;;8.77;2.97;;;9.50;99.20;;;;;;4996600;28;20762;-76
2021/11/08 13:59:43;;;;;;;14.63;4.55;;;9.50;99.20;;;;;;4985429;28;20060;-76
2021/11/08 14:02:10;;;;;;;15.75;3.83;;;9.50;99.10;;;;;;4988143;28;20022;-76
2021/11/08 14:04:37;;;;;;;8.00;3.20;;;9.40;99.00;;;;;;4991940;28;20033;-76
2021/11/08 14:07:05;;;;;;;6.88;3.13;;;9.30;98.90;;;;;;4996682;28;20030;-76
2021/11/08 14:09:31;;;;;;;10.95;3.40;;;9.30;98.90;;;;;;4991065;28;20044;-76
2021/11/08 14:11:59;;;;;;;14.27;4.95;;;9.30;99.00;;;;;;4991045;28;20508;-76
2021/11/08 14:14:27;;;;;;;10.38;4.00;;;9.30;98.80;;;;;;4999711;28;20053;-76
2021/11/08 14:16:55;;;;;;;13.10;4.00;;;9.50;99.00;;;;;;4973464;28;20730;-76
2021/11/08 14:19:22;;;;;;;11.45;4.22;;;9.50;99.00;;;;;;4975700;28;20104;-76
2021/11/08 14:21:51;;;;;;;12.52;3.97;;;9.50;99.00;;;;;;5005663;28;20087;-76
2021/11/08 14:24:19;;;;;;;9.55;3.60;;;9.50;98.80;;;;;;4992047;28;20030;-76
2021/11/08 14:26:53;;;;;;;11.75;4.22;;;9.40;98.80;;;;;;5012631;28;20034;-75
2021/11/08 14:29:27;;;;;;;10.82;3.53;;;9.40;98.70;;;;;;4992204;28;20407;-76
2021/11/08 14:31:56;;;;;;;10.77;3.65;;;9.40;98.60;;;;;;4996576;28;20036;-76
2021/11/08 14:34:26;;;;;;;8.25;2.97;;;9.40;98.60;;;;;;4994699;28;20117;-76
2021/11/08 14:36:52;;;;;;;12.35;3.20;;;9.30;98.50;;;;;;5013786;28;20108;-75
2021/11/08 14:39:22;;;;;;;12.23;3.85;;;9.30;98.70;;;;;;4991748;28;20389;-77
2021/11/08 14:42:03;;;;;;;11.50;3.63;;;9.30;98.40;;;;;;4994436;28;20213;-76
2021/11/08 14:44:52;;;;;;;11.68;3.97;;;9.20;98.30;;;;;;4975482;28;20034;-76
2021/11/08 14:47:20;;;;;;;9.32;3.63;;;9.20;98.30;;;;;;4994036;28;20041;-77
2021/11/08 14:50:05;;;;;;;7.60;3.05;;;9.20;98.40;;;;;;4988426;28;20030;-76